Time;durP1;ratioP1;P1;durP2;ratioP2;P2;SDS_P1;SDS_P2;PMS_P1;PMS_P2;Temp;Humidity;BMP_temperature;BMP_pressure;BME280_temperature;BME280_humidity;BME280_pressure;Samples;Min_cycle;Max_cycle;Signal;HPM_P1;HPM_P2
2022/11/18 00:02:21;;;;;;;2.25;2.00;;;17.90;84.30;;;18.85;46.45;97370.97;5028954;28;20041;-72
2022/11/18 00:04:47;;;;;;;3.40;2.58;;;17.90;84.20;;;18.93;46.60;97368.31;5027784;28;20076;-72
2022/11/18 00:07:14;;;;;;;5.28;2.17;;;17.90;84.40;;;19.00;46.53;97368.47;5024431;28;20041;-72
2022/11/18 00:09:40;;;;;;;5.30;2.47;;;17.90;84.50;;;18.93;46.56;97365.56;5022134;28;20038;-72
2022/11/18 00:14:50;;;;;;;3.72;2.55;;;18.00;84.30;;;19.02;46.38;97374.41;5024953;28;20045;-72
2022/11/18 00:17:16;;;;;;;2.03;1.90;;;18.00;84.30;;;19.01;46.34;97379.09;5027528;28;20052;-72
2022/11/18 00:19:42;;;;;;;2.75;2.35;;;17.90;84.20;;;19.05;46.47;97376.41;5031281;28;20042;-72
2022/11/18 00:22:11;;;;;;;3.90;2.60;;;18.00;84.50;;;19.02;46.67;97377.16;5042009;28;20046;-72
2022/11/18 00:24:37;;;;;;;3.70;2.60;;;18.00;84.50;;;19.07;46.34;97374.88;5008659;28;20038;-72
2022/11/18 00:27:03;;;;;;;4.65;2.72;;;17.90;84.70;;;19.08;46.55;97370.19;5028372;28;20551;-72
2022/11/18 00:29:30;;;;;;;2.92;2.45;;;18.00;84.70;;;19.09;46.46;97371.78;5025108;28;20057;-72
2022/11/18 00:31:56;;;;;;;3.10;2.80;;;18.00;84.50;;;19.14;46.40;97374.25;5026913;28;20737;-72
2022/11/18 00:34:23;;;;;;;3.45;2.45;;;18.00;84.40;;;19.10;46.41;97384.34;5026526;28;20557;-72
2022/11/18 00:36:49;;;;;;;3.60;2.25;;;18.00;84.60;;;19.17;46.39;97387.25;5010770;28;20469;-72
2022/11/18 00:39:19;;;;;;;3.90;2.92;;;18.10;84.70;;;19.13;46.61;97383.63;5031376;28;20041;-72
2022/11/18 00:44:29;;;;;;;4.03;2.47;;;18.10;84.90;;;19.14;46.43;97379.75;5027500;28;20779;-72
2022/11/18 00:46:55;;;;;;;2.40;2.20;;;18.00;84.70;;;19.16;46.39;97380.16;5029259;28;20676;-72
2022/11/18 00:49:22;;;;;;;3.65;2.53;;;18.00;84.80;;;19.18;46.53;97377.81;5010733;28;20669;-72
2022/11/18 00:51:48;;;;;;;6.97;2.60;;;18.00;84.80;;;19.21;46.40;97379.06;5025629;28;20085;-72
2022/11/18 00:54:14;;;;;;;3.20;2.80;;;18.00;84.60;;;19.26;46.44;97378.78;5026785;28;20048;-72
2022/11/18 00:56:40;;;;;;;4.20;2.08;;;18.10;84.80;;;19.26;46.62;97381.53;5028664;28;20088;-72
2022/11/18 00:59:06;;;;;;;3.55;2.63;;;18.10;84.80;;;19.23;46.32;97366.56;5027533;28;20450;-72
2022/11/18 01:01:33;;;;;;;2.88;2.20;;;18.10;84.80;;;19.25;46.28;97368.94;5027043;28;20132;-72
2022/11/18 01:03:59;;;;;;;4.50;2.30;;;18.10;84.70;;;19.27;46.30;97364.66;4994930;28;20050;-72
2022/11/18 01:06:25;;;;;;;2.30;2.10;;;18.10;84.70;;;19.29;46.24;97372.53;5013564;28;20033;-72
2022/11/18 01:08:51;;;;;;;6.45;2.45;;;18.10;84.50;;;19.30;46.14;97377.66;5021695;28;20045;-72
2022/11/18 01:14:02;;;;;;;2.53;2.05;;;18.10;84.80;;;19.25;46.48;97364.22;5014381;28;20052;-72
2022/11/18 01:16:29;;;;;;;2.35;2.15;;;18.10;84.90;;;19.26;46.39;97360.31;5042546;28;20386;-72
2022/11/18 01:18:56;;;;;;;2.85;2.22;;;18.10;84.80;;;19.30;46.26;97361.16;5009252;28;20893;-72
2022/11/18 01:21:22;;;;;;;2.28;2.08;;;18.10;84.70;;;19.28;46.50;97359.94;5011422;28;20478;-72
2022/11/18 01:23:48;;;;;;;2.67;2.30;;;18.10;84.70;;;19.26;46.40;97348.53;5029536;28;20052;-72
2022/11/18 01:26:15;;;;;;;5.88;2.70;;;18.20;84.40;;;19.30;46.34;97352.91;5023265;28;20061;-72
2022/11/18 01:28:41;;;;;;;2.45;2.22;;;18.20;84.70;;;19.35;46.46;97345.53;5026435;28;20404;-72
2022/11/18 01:31:17;;;;;;;3.05;2.15;;;18.20;84.70;;;19.32;46.43;97349.81;5028929;28;20041;-72
2022/11/18 01:33:44;;;;;;;3.88;2.67;;;18.20;84.70;;;19.30;46.44;97343.88;5025767;28;20045;-72
2022/11/18 01:36:18;;;;;;;2.80;2.17;;;18.20;84.70;;;19.37;46.17;97348.72;5025650;28;20046;-72
2022/11/18 01:38:45;;;;;;;4.80;2.85;;;18.20;84.50;;;19.35;46.35;97348.28;5026227;28;20037;-72
2022/11/18 01:41:11;;;;;;;3.28;2.67;;;18.20;84.50;;;19.33;46.45;97356.09;5024280;28;20384;-72
2022/11/18 01:44:00;;;;;;;2.92;2.03;;;18.20;84.50;;;19.36;46.44;97358.09;5024332;28;20064;-72
2022/11/18 01:46:28;;;;;;;2.67;2.13;;;18.20;84.80;;;19.35;46.36;97362.03;5043243;28;20038;-72
2022/11/18 01:49:11;;;;;;;3.50;2.58;;;18.20;84.80;;;19.34;46.45;97357.72;5023185;28;20071;-72
2022/11/18 01:51:48;;;;;;;3.05;2.22;;;18.20;84.60;;;19.33;46.22;97353.34;5013966;28;20136;-73
2022/11/18 01:54:24;;;;;;;2.70;2.03;;;18.20;85.20;;;19.39;46.25;97354.66;5012679;28;20052;-72
2022/11/18 01:56:53;;;;;;;3.15;2.20;;;18.30;84.50;;;19.32;46.20;97346.28;5025019;28;20102;-72
2022/11/18 01:59:31;;;;;;;1.75;1.65;;;18.20;84.50;;;19.35;46.42;97340.03;5023945;28;20033;-72
2022/11/18 02:01:57;;;;;;;2.72;2.25;;;18.30;84.60;;;19.36;46.20;97330.63;5012072;28;20045;-72
2022/11/18 02:04:23;;;;;;;2.35;2.15;;;18.20;84.80;;;19.36;46.55;97325.13;5011735;28;20459;-72
2022/11/18 02:06:49;;;;;;;2.47;2.25;;;18.20;84.70;;;19.35;46.32;97323.53;5014010;28;20049;-72
2022/11/18 02:09:15;;;;;;;2.42;2.22;;;18.20;84.70;;;19.37;46.23;97321.22;5030275;28;20037;-72
2022/11/18 02:11:52;;;;;;;3.03;2.53;;;18.20;84.40;;;19.33;46.33;97315.66;5011625;28;20453;-72
2022/11/18 02:14:28;;;;;;;2.60;2.40;;;18.30;84.50;;;19.37;46.27;97312.97;5024240;28;20683;-72
2022/11/18 02:17:07;;;;;;;2.78;2.05;;;18.30;84.60;;;19.28;46.62;97313.22;5027548;28;20056;-72
2022/11/18 02:19:46;;;;;;;2.72;2.17;;;18.30;84.80;;;19.36;46.33;97305.88;5029034;28;20041;-72
2022/11/18 02:22:34;;;;;;;2.83;2.40;;;18.20;84.70;;;19.34;46.35;97322.75;5016953;28;20041;-72
2022/11/18 02:25:33;;;;;;;2.70;2.08;;;18.30;84.60;;;19.33;46.46;97320.34;5016576;28;20045;-72
2022/11/18 02:28:59;;;;;;;4.18;2.58;;;18.30;84.50;;;19.33;46.35;97310.16;5030030;28;20422;-72
2022/11/18 02:32:00;;;;;;;2.45;2.20;;;18.30;84.40;;;19.37;46.26;97305.50;5016562;28;20065;-72
2022/11/18 02:34:42;;;;;;;4.80;2.40;;;18.30;84.50;;;19.34;46.64;97306.25;5032310;28;20137;-72
2022/11/18 02:37:48;;;;;;;2.33;2.05;;;18.30;84.50;;;19.37;46.42;97312.97;5030509;28;20535;-72
2022/11/18 02:40:38;;;;;;;3.20;2.10;;;18.40;84.60;;;19.36;46.21;97314.13;5017273;28;20099;-72
2022/11/18 02:43:13;;;;;;;2.20;2.00;;;18.30;84.30;;;19.35;46.20;97318.03;5030766;28;20071;-72
2022/11/18 02:45:43;;;;;;;3.13;2.83;;;18.40;84.30;;;19.32;46.43;97318.78;5025817;28;20037;-72
2022/11/18 02:48:09;;;;;;;2.70;2.50;;;18.40;84.10;;;19.32;45.97;97321.53;5022922;28;20402;-71
2022/11/18 02:50:35;;;;;;;4.00;2.13;;;18.40;84.40;;;19.36;46.50;97322.38;5028907;28;20041;-71
2022/11/18 02:53:04;;;;;;;3.83;2.45;;;18.30;84.40;;;19.36;46.07;97330.63;5029790;28;20045;-72
2022/11/18 02:55:32;;;;;;;3.90;2.55;;;18.30;84.40;;;19.36;46.15;97325.13;5029218;28;20037;-72
2022/11/18 02:57:59;;;;;;;3.13;2.30;;;18.30;84.40;;;19.34;46.04;97322.75;5013560;28;20123;-72
2022/11/18 03:00:25;;;;;;;3.03;2.42;;;18.30;84.00;;;19.29;46.11;97314.81;5029698;28;20647;-72
2022/11/18 03:02:51;;;;;;;2.85;2.42;;;18.40;84.10;;;19.32;46.22;97318.78;5029984;28;20042;-72
2022/11/18 03:05:26;;;;;;;3.03;2.20;;;18.40;84.10;;;19.37;46.40;97318.47;5028454;28;20053;-72
2022/11/18 03:08:02;;;;;;;2.45;2.10;;;18.40;84.10;;;19.36;46.09;97317.69;5029254;28;20048;-72
2022/11/18 03:10:31;;;;;;;2.50;2.20;;;18.40;85.20;;;19.34;46.22;97314.50;5028090;28;20104;-72
2022/11/18 03:13:29;;;;;;;5.80;2.53;;;18.40;84.10;;;19.37;46.20;97316.50;5010352;28;20061;-72
2022/11/18 03:16:14;;;;;;;3.30;1.95;;;18.40;84.10;;;19.35;46.05;97307.84;5029171;28;20377;-72
2022/11/18 03:18:56;;;;;;;2.60;1.65;;;18.40;84.10;;;19.35;46.04;97304.28;5029950;28;20118;-72
2022/11/18 03:21:38;;;;;;;1.63;1.50;;;18.30;84.20;;;19.28;46.20;97294.78;5025960;28;20049;-72
2022/11/18 03:24:20;;;;;;;3.95;2.03;;;18.40;84.10;;;19.34;46.29;97294.47;5033322;28;20045;-72
2022/11/18 03:26:51;;;;;;;2.72;2.00;;;18.30;83.90;;;19.32;46.38;97291.28;5030528;28;20099;-72
2022/11/18 03:29:22;;;;;;;2.05;1.90;;;18.40;84.00;;;19.33;46.09;97292.88;5025935;28;20053;-72
2022/11/18 03:31:59;;;;;;;2.08;1.80;;;18.40;83.90;;;19.28;46.21;97299.47;5013495;28;20056;-72
2022/11/18 03:34:45;;;;;;;2.00;1.80;;;18.40;83.90;;;19.26;46.24;97304.56;5029286;28;20053;-72
2022/11/18 03:37:13;;;;;;;2.53;1.88;;;18.40;83.90;;;19.30;46.19;97306.19;5019368;28;20112;-72
2022/11/18 03:39:43;;;;;;;3.85;2.40;;;18.40;84.00;;;19.32;46.37;97297.56;5031242;28;20044;-72
2022/11/18 03:42:24;;;;;;;3.13;2.22;;;18.40;84.30;;;19.29;46.22;97303.81;5029473;28;20085;-71
2022/11/18 03:44:54;;;;;;;2.90;1.95;;;18.30;84.10;;;19.20;46.31;97306.78;5030183;28;20044;-71
2022/11/18 03:47:42;;;;;;;2.88;2.42;;;18.40;83.80;;;19.28;46.15;97304.97;5016657;28;20033;-71
2022/11/18 03:50:16;;;;;;;3.28;2.10;;;18.40;83.60;;;19.29;46.11;97307.34;5025340;28;20096;-72
2022/11/18 03:52:42;;;;;;;3.72;2.40;;;18.40;83.80;;;19.27;46.01;97306.91;5018509;28;20042;-72
2022/11/18 03:55:16;;;;;;;2.05;1.90;;;18.40;83.50;;;19.25;46.10;97300.19;5013971;28;20056;-72
2022/11/18 03:58:03;;;;;;;3.30;2.60;;;18.40;83.50;;;19.21;46.00;97293.84;5015167;28;20049;-72
2022/11/18 04:00:33;;;;;;;2.70;1.85;;;18.40;83.30;;;19.21;45.74;97288.34;5029176;28;20469;-72
2022/11/18 04:02:59;;;;;;;3.28;2.30;;;18.40;83.30;;;19.24;45.89;97285.66;5027771;28;20191;-71
2022/11/18 04:05:25;;;;;;;2.20;1.88;;;18.40;83.40;;;19.22;46.15;97281.69;5008831;28;20037;-71
2022/11/18 04:08:01;;;;;;;2.22;2.03;;;18.40;83.50;;;19.23;45.90;97277.78;5031536;28;20469;-71
2022/11/18 04:10:34;;;;;;;2.20;2.05;;;18.30;83.70;;;19.22;45.81;97274.25;5029402;28;20057;-71
2022/11/18 04:13:29;;;;;;;2.33;2.08;;;18.30;83.40;;;19.22;45.62;97271.50;5029756;28;20045;-71
2022/11/18 04:15:55;;;;;;;2.67;2.38;;;18.40;83.20;;;19.20;45.63;97275.78;5022078;28;20049;-71
2022/11/18 04:18:21;;;;;;;3.10;2.40;;;18.40;82.70;;;19.23;45.74;97277.78;5012494;28;20037;-71
2022/11/18 04:20:47;;;;;;;3.17;2.10;;;18.40;82.80;;;19.22;45.92;97277.00;5027853;28;20052;-71
2022/11/18 04:23:13;;;;;;;1.67;1.60;;;18.40;83.10;;;19.19;45.74;97280.47;5028537;28;20045;-71
2022/11/18 04:25:39;;;;;;;2.83;2.40;;;18.40;83.10;;;19.16;45.86;97280.41;5030644;28;20037;-71
2022/11/18 04:28:05;;;;;;;2.20;2.00;;;18.30;83.00;;;19.14;45.92;97277.25;5029317;28;20041;-71
2022/11/18 04:30:31;;;;;;;2.30;2.00;;;18.30;82.70;;;19.13;45.63;97276.44;5027589;28;20436;-72
2022/11/18 04:32:57;;;;;;;2.15;1.95;;;18.40;82.70;;;19.09;45.76;97264.59;5030433;28;20046;-72
2022/11/18 04:35:24;;;;;;;1.75;1.65;;;18.30;82.60;;;19.18;45.57;97259.63;5029583;28;20428;-72
2022/11/18 04:37:50;;;;;;;2.28;2.08;;;18.30;82.60;;;19.15;45.91;97260.38;5026029;28;20053;-72
2022/11/18 04:40:16;;;;;;;2.50;2.30;;;18.30;82.80;;;19.18;45.71;97256.88;5029104;28;20041;-72
2022/11/18 04:42:42;;;;;;;2.20;1.88;;;18.30;83.10;;;19.14;45.60;97253.31;5031703;28;20057;-72
2022/11/18 04:45:09;;;;;;;4.00;1.92;;;18.30;82.80;;;19.11;45.61;97256.78;5009469;28;20055;-72
2022/11/18 04:47:36;;;;;;;2.15;1.70;;;18.30;82.60;;;19.08;45.75;97263.00;5026580;28;20045;-72
2022/11/18 04:50:02;;;;;;;3.67;2.35;;;18.30;82.60;;;19.11;45.54;97259.53;5027462;28;20042;-72
2022/11/18 04:52:28;;;;;;;2.10;1.90;;;18.30;83.40;;;19.14;45.50;97266.25;5026873;28;20401;-71
2022/11/18 04:54:54;;;;;;;2.45;2.25;;;18.30;82.60;;;19.10;45.68;97268.94;5027719;28;20041;-71
2022/11/18 04:57:20;;;;;;;3.95;1.77;;;18.30;82.60;;;19.14;45.50;97261.56;5007229;28;20041;-71
2022/11/18 04:59:46;;;;;;;2.28;2.08;;;18.30;82.60;;;19.07;45.65;97264.97;5023215;28;20091;-71
2022/11/18 05:02:12;;;;;;;2.78;2.08;;;18.20;82.50;;;19.09;45.51;97272.84;5026209;28;20041;-71
2022/11/18 05:04:39;;;;;;;3.88;2.90;;;18.30;82.30;;;19.08;45.38;97272.06;5027613;28;20085;-71
2022/11/18 05:07:06;;;;;;;2.67;2.05;;;18.30;82.30;;;19.10;45.09;97274.44;5027819;28;20053;-71
2022/11/18 05:09:32;;;;;;;3.05;2.00;;;18.30;82.20;;;19.06;45.25;97279.88;5027702;28;20053;-71
2022/11/18 05:14:45;;;;;;;2.30;2.10;;;18.20;82.50;;;19.09;45.32;97278.34;5012925;28;20044;-71
2022/11/18 05:17:11;;;;;;;2.05;1.92;;;18.20;82.40;;;19.06;45.29;97279.09;5028961;28;20112;-71
2022/11/18 05:19:38;;;;;;;2.60;2.40;;;18.20;82.50;;;19.05;45.19;97277.47;5027809;28;20064;-71
2022/11/18 05:22:05;;;;;;;2.45;2.05;;;18.20;82.50;;;19.03;45.22;97288.03;5012223;28;20084;-71
2022/11/18 05:24:31;;;;;;;3.15;2.58;;;18.20;82.10;;;19.01;45.16;97282.16;5010014;28;20564;-71
2022/11/18 05:26:57;;;;;;;2.55;2.35;;;18.20;82.30;;;19.02;45.45;97284.50;5012533;28;20038;-71
2022/11/18 05:29:23;;;;;;;2.67;2.38;;;18.20;82.50;;;19.01;45.53;97277.44;5027540;28;20420;-71
2022/11/18 05:31:49;;;;;;;2.58;2.30;;;18.20;82.50;;;19.06;45.26;97270.84;5027923;28;20052;-71
2022/11/18 05:34:15;;;;;;;2.47;2.28;;;18.20;82.30;;;19.01;45.25;97282.94;5013616;28;20045;-71
2022/11/18 05:36:41;;;;;;;2.65;2.28;;;18.20;82.30;;;19.01;45.00;97276.66;5029089;28;20049;-71
2022/11/18 05:39:08;;;;;;;3.03;2.42;;;18.10;82.00;;;18.98;45.42;97277.34;5012927;28;20886;-71
2022/11/18 05:44:19;;;;;;;2.35;2.08;;;18.20;82.30;;;19.05;45.24;97288.47;5030448;28;20050;-73
2022/11/18 05:46:45;;;;;;;2.80;2.38;;;18.20;82.50;;;18.97;45.30;97286.75;5032558;28;20168;-73
2022/11/18 05:49:11;;;;;;;3.55;2.38;;;18.20;82.40;;;18.97;45.12;97281.28;5030230;28;20477;-73
2022/11/18 05:51:37;;;;;;;2.60;2.40;;;18.10;82.30;;;18.98;44.92;97288.34;5036456;28;20087;-73
2022/11/18 05:54:06;;;;;;;3.05;2.42;;;18.10;82.10;;;18.99;44.97;97288.00;5017762;28;20046;-73
2022/11/18 05:56:40;;;;;;;2.33;2.13;;;18.20;82.00;;;18.99;45.16;97295.44;5004823;28;20033;-73
2022/11/18 05:59:06;;;;;;;2.58;2.38;;;18.20;81.90;;;19.00;44.96;97297.81;5033976;28;20469;-73
2022/11/18 06:02:02;;;;;;;3.90;2.90;;;18.20;82.10;;;18.97;44.97;97306.78;5033402;28;20049;-73
2022/11/18 06:04:43;;;;;;;2.60;2.40;;;18.20;81.90;;;18.99;45.31;97311.94;5019690;28;20168;-74
2022/11/18 06:07:37;;;;;;;2.88;2.67;;;18.20;82.40;;;18.96;45.50;97316.22;5047166;28;20477;-75
2022/11/18 06:10:03;;;;;;;2.40;2.20;;;18.10;82.40;;;18.93;45.39;97318.88;5031042;28;20093;-74
2022/11/18 06:12:32;;;;;;;2.38;2.17;;;18.20;82.40;;;18.97;45.32;97314.25;5031215;28;20441;-73
2022/11/18 06:15:23;;;;;;;3.03;2.42;;;18.10;82.20;;;18.98;45.32;97318.56;5031666;28;20042;-73
2022/11/18 06:18:00;;;;;;;2.20;2.00;;;18.10;82.10;;;18.97;45.11;97317.78;5028948;28;20045;-73
2022/11/18 06:20:26;;;;;;;4.50;2.63;;;18.10;82.00;;;18.97;45.48;97320.53;5015161;28;20045;-73
2022/11/18 06:22:54;;;;;;;2.30;2.10;;;18.20;82.40;;;19.01;45.33;97320.63;5026967;28;20420;-74
2022/11/18 06:25:21;;;;;;;2.38;2.17;;;18.20;82.30;;;18.96;45.44;97315.41;5026279;28;20481;-73
2022/11/18 06:27:47;;;;;;;2.40;2.20;;;18.20;82.30;;;18.92;45.38;97320.84;5011248;28;20409;-73
2022/11/18 06:30:13;;;;;;;2.72;2.35;;;18.10;82.40;;;18.92;45.28;97326.31;5028539;28;20512;-73
2022/11/18 06:32:40;;;;;;;3.65;2.40;;;18.10;82.40;;;18.88;45.43;97320.00;5025341;28;20041;-73
2022/11/18 06:35:07;;;;;;;2.13;1.92;;;18.10;82.40;;;18.91;45.68;97316.50;5025468;28;20052;-73
2022/11/18 06:37:33;;;;;;;2.28;2.08;;;18.10;82.40;;;18.93;45.41;97322.44;5008123;28;20494;-73
2022/11/18 06:39:59;;;;;;;3.75;2.15;;;18.10;82.40;;;18.94;45.63;97323.22;5028933;28;20401;-73
2022/11/18 06:46:54;;;;;;;2.53;2.30;;;18.10;82.40;;;18.93;45.40;97333.44;4996081;28;20049;-72
2022/11/18 06:48:25;;;;;;;2.63;2.30;;;18.10;82.40;;;18.90;45.39;97341.59;5042922;28;20103;-72
2022/11/18 06:50:51;;;;;;;2.38;2.17;;;18.10;82.30;;;18.90;45.49;97347.09;5041642;28;20151;-72
2022/11/18 06:53:17;;;;;;;2.17;2.00;;;18.10;82.40;;;18.96;45.44;97345.63;5009203;28;20057;-72
2022/11/18 06:55:43;;;;;;;2.33;2.03;;;18.10;82.40;;;18.93;45.69;97351.84;5039930;28;20053;-72
2022/11/18 06:58:09;;;;;;;2.50;2.15;;;18.10;82.60;;;18.91;45.52;97357.72;5026778;28;20045;-72
2022/11/18 07:00:35;;;;;;;6.30;2.72;;;18.10;82.40;;;18.89;45.57;97359.25;5041628;28;20057;-72
2022/11/18 07:03:02;;;;;;;2.35;2.15;;;18.00;82.40;;;18.86;45.30;97361.56;5010602;28;20559;-72
2022/11/18 07:05:27;;;;;;;2.78;2.30;;;18.00;82.30;;;18.90;45.28;97363.56;5010241;28;20048;-72
2022/11/18 07:07:54;;;;;;;2.58;2.08;;;18.10;82.40;;;18.89;45.63;97364.72;5023198;28;20102;-72
2022/11/18 07:10:20;;;;;;;3.33;2.25;;;18.00;82.30;;;18.94;45.46;97365.22;5024542;28;20064;-72
2022/11/18 07:12:46;;;;;;;2.38;2.08;;;18.10;82.40;;;18.92;45.45;97366.75;5021422;28;20045;-72
2022/11/18 07:15:12;;;;;;;2.13;1.98;;;18.10;82.50;;;18.93;45.44;97358.16;5024519;28;20068;-72
2022/11/18 07:17:39;;;;;;;2.63;2.42;;;18.10;82.40;;;18.90;45.19;97358.06;5022876;28;20049;-72
2022/11/18 07:20:05;;;;;;;2.30;2.10;;;18.00;82.30;;;18.85;45.35;97350.91;5024501;28;20089;-72
2022/11/18 07:22:31;;;;;;;2.55;2.25;;;18.00;82.30;;;18.82;45.05;97355.19;5023903;28;20041;-72
2022/11/18 07:24:57;;;;;;;5.25;3.05;;;18.00;82.20;;;18.86;45.63;97361.56;5024524;28;20037;-72
2022/11/18 07:27:23;;;;;;;3.13;2.83;;;18.00;82.40;;;18.89;45.55;97351.78;5003728;28;20033;-72
2022/11/18 07:29:49;;;;;;;2.67;2.28;;;18.00;82.50;;;18.84;45.17;97350.13;5026414;28;20068;-73
2022/11/18 07:32:16;;;;;;;2.53;2.33;;;18.00;82.30;;;18.82;45.43;97357.94;5011324;28;20037;-73
2022/11/18 07:34:42;;;;;;;2.67;2.40;;;18.00;82.30;;;18.80;45.46;97354.78;5026561;28;20546;-73
2022/11/18 07:37:08;;;;;;;2.90;2.60;;;18.00;82.30;;;18.82;45.37;97351.66;5020019;28;20045;-73
2022/11/18 07:39:35;;;;;;;4.40;2.35;;;18.10;82.30;;;18.84;45.45;97354.81;5024170;28;20087;-73
2022/11/18 07:42:01;;;;;;;3.55;2.67;;;18.00;82.30;;;18.86;45.42;97344.28;5007062;28;20511;-73
2022/11/18 07:44:27;;;;;;;2.25;2.05;;;18.00;82.30;;;18.83;45.36;97334.81;5023216;28;20050;-73
2022/11/18 07:46:53;;;;;;;3.15;2.42;;;18.00;82.30;;;18.87;45.51;97332.91;5026095;28;20049;-73
2022/11/18 07:49:21;;;;;;;3.95;2.78;;;18.00;82.30;;;18.82;45.35;97337.91;5023766;28;20052;-73
2022/11/18 07:51:47;;;;;;;3.35;3.00;;;18.00;82.30;;;18.82;45.25;97333.19;5026011;28;20064;-73
2022/11/18 07:54:15;;;;;;;5.53;2.70;;;18.10;82.40;;;18.83;45.13;97337.56;5027111;28;20045;-74
2022/11/18 07:56:42;;;;;;;3.47;2.42;;;18.00;82.20;;;18.85;45.26;97338.00;5027027;28;20389;-73
2022/11/18 07:59:07;;;;;;;3.63;3.13;;;18.00;82.30;;;18.86;45.50;97339.56;5022361;28;20045;-73
2022/11/18 08:01:34;;;;;;;2.60;2.40;;;18.00;82.30;;;18.86;45.31;97339.56;5024281;28;20045;-73
2022/11/18 08:04:11;;;;;;;3.00;2.70;;;18.00;82.10;;;18.80;45.40;97343.78;5027921;28;20064;-73
2022/11/18 08:06:37;;;;;;;3.90;3.03;;;18.00;82.30;;;18.86;45.24;97347.81;5009252;28;20047;-73
2022/11/18 08:09:03;;;;;;;4.93;2.55;;;18.00;82.20;;;18.87;45.18;97345.84;5022378;28;20409;-73
2022/11/18 08:11:30;;;;;;;3.22;2.65;;;18.00;82.10;;;18.85;45.06;97339.91;5025988;28;20103;-73
2022/11/18 08:13:56;;;;;;;3.45;2.25;;;18.00;82.20;;;18.84;45.49;97350.13;5021440;28;20041;-73
2022/11/18 08:16:23;;;;;;;4.20;2.88;;;18.00;82.30;;;18.87;45.36;97346.63;5023880;28;20041;-73
2022/11/18 08:18:50;;;;;;;3.90;2.72;;;18.00;82.30;;;18.84;45.32;97344.63;5022413;28;20144;-73
2022/11/18 08:21:18;;;;;;;7.10;3.17;;;18.00;82.10;;;18.88;45.16;97341.97;5021581;28;20042;-73
2022/11/18 08:23:52;;;;;;;3.55;2.83;;;18.00;82.20;;;18.80;45.24;97352.03;5024130;28;20122;-73
2022/11/18 08:26:18;;;;;;;4.25;2.95;;;18.00;82.00;;;18.89;45.00;97351.00;5007021;28;20417;-73
2022/11/18 08:28:44;;;;;;;4.05;2.97;;;18.00;81.90;;;18.84;45.30;97355.63;5007529;28;20397;-73
2022/11/18 08:31:18;;;;;;;4.28;3.08;;;18.10;82.10;;;18.88;45.17;97355.69;4990450;28;20037;-73
2022/11/18 08:33:44;;;;;;;3.13;2.70;;;18.00;82.30;;;18.89;45.33;97351.00;5024371;28;20068;-73
2022/11/18 08:36:21;;;;;;;3.33;2.90;;;18.10;82.30;;;18.85;45.17;97351.72;5004331;28;20048;-73
2022/11/18 08:38:47;;;;;;;2.78;2.40;;;18.10;82.00;;;18.89;44.93;97359.25;5025726;28;20064;-73
2022/11/18 08:41:18;;;;;;;5.82;3.45;;;18.10;81.90;;;18.90;45.16;97364.34;5023219;28;20041;-73
2022/11/18 08:43:44;;;;;;;2.90;2.70;;;18.00;81.90;;;18.87;45.14;97365.88;5023536;28;20538;-73
2022/11/18 08:46:11;;;;;;;3.63;2.85;;;18.00;81.70;;;18.90;45.30;97358.06;5025006;28;20052;-73
2022/11/18 08:48:37;;;;;;;2.63;2.42;;;18.10;82.00;;;18.91;45.34;97359.69;5025508;28;20488;-73
2022/11/18 08:51:03;;;;;;;3.30;3.00;;;18.10;82.20;;;18.91;44.96;97348.69;5020901;28;20050;-73
2022/11/18 08:53:29;;;;;;;5.57;3.13;;;18.10;81.90;;;18.87;45.07;97363.13;5023147;28;20119;-73
2022/11/18 08:55:59;;;;;;;2.88;2.35;;;18.10;82.00;;;18.90;44.79;97364.34;5021260;28;20104;-73
2022/11/18 08:58:25;;;;;;;3.30;2.67;;;18.00;81.70;;;18.87;45.15;97370.59;5006551;28;20041;-73
2022/11/18 09:00:51;;;;;;;4.20;2.65;;;18.00;81.90;;;18.87;45.09;97371.38;5008777;28;20049;-73
2022/11/18 09:03:18;;;;;;;2.85;2.63;;;18.00;82.00;;;18.90;45.00;97374.56;5023481;28;20071;-73
2022/11/18 09:05:44;;;;;;;3.35;3.05;;;18.00;82.00;;;18.84;45.24;97369.34;4991386;28;20041;-73
2022/11/18 09:08:10;;;;;;;4.68;2.58;;;18.00;82.10;;;18.86;45.01;97363.50;5024122;28;20389;-73
2022/11/18 09:10:37;;;;;;;2.17;2.00;;;18.00;82.00;;;18.89;44.86;97357.28;5016356;28;20068;-73
2022/11/18 09:13:03;;;;;;;2.58;2.28;;;18.00;81.80;;;18.90;44.76;97363.56;5022802;28;20092;-73
2022/11/18 09:15:29;;;;;;;2.67;2.45;;;18.00;81.70;;;18.85;44.66;97376.47;5024370;28;20420;-73
2022/11/18 09:17:56;;;;;;;3.33;2.75;;;18.00;81.70;;;18.85;45.02;97392.13;5025127;28;20087;-73
2022/11/18 09:20:23;;;;;;;3.63;2.97;;;18.00;81.80;;;18.86;44.96;97386.28;5025744;28;20046;-73
2022/11/18 09:22:48;;;;;;;2.70;2.50;;;18.10;81.80;;;18.83;44.98;97381.50;5027796;28;20049;-73
2022/11/18 09:25:16;;;;;;;4.25;2.80;;;18.10;81.60;;;18.84;44.97;97394.06;5024808;28;20048;-73
2022/11/18 09:27:42;;;;;;;4.18;2.58;;;18.10;81.70;;;18.86;44.89;97388.22;5030290;28;20096;-73
2022/11/18 09:30:09;;;;;;;3.83;2.53;;;18.00;81.70;;;18.81;45.13;97383.03;5027985;28;20037;-73
2022/11/18 09:32:35;;;;;;;2.83;2.42;;;18.00;81.70;;;18.84;45.04;97382.31;5028233;28;20041;-73
2022/11/18 09:35:01;;;;;;;3.05;2.75;;;18.00;81.60;;;18.83;45.00;97381.50;5010606;28;20421;-73
2022/11/18 09:37:27;;;;;;;2.97;2.67;;;18.10;81.90;;;18.87;45.11;97376.06;5027389;28;20051;-73
2022/11/18 09:39:53;;;;;;;3.53;2.42;;;18.10;81.90;;;18.76;45.31;97375.88;5031592;28;20046;-73
2022/11/18 09:42:26;;;;;;;4.60;2.85;;;18.10;81.70;;;18.74;45.24;97385.59;5044769;28;20051;-73
2022/11/18 09:45:11;;;;;;;3.40;2.50;;;18.00;81.70;;;18.80;44.97;97390.47;5027394;28;20451;-73
2022/11/18 09:47:37;;;;;;;3.60;2.75;;;18.00;81.60;;;18.76;44.93;97392.34;5024964;28;20033;-73
2022/11/18 09:50:17;;;;;;;3.60;2.70;;;18.00;81.60;;;18.79;45.11;97391.63;5013211;28;20039;-73
2022/11/18 09:52:54;;;;;;;2.75;2.55;;;18.00;81.60;;;18.81;45.25;97378.31;5024397;28;20041;-73
2022/11/18 09:55:20;;;;;;;5.13;2.95;;;18.00;81.80;;;18.83;44.77;97376.00;5024361;28;20525;-73
2022/11/18 09:57:50;;;;;;;3.42;2.55;;;18.00;81.60;;;18.71;45.06;97373.38;5026693;28;20049;-73
2022/11/18 10:00:25;;;;;;;3.45;2.92;;;18.00;81.60;;;18.72;44.95;97382.41;5026999;28;20033;-73
2022/11/18 10:03:14;;;;;;;3.80;2.72;;;18.00;81.60;;;18.76;44.83;97386.06;4996112;28;20448;-73
2022/11/18 10:06:05;;;;;;;3.17;2.38;;;17.90;81.50;;;18.78;45.12;97386.50;5027883;28;20140;-73
2022/11/18 10:09:05;;;;;;;2.47;2.30;;;18.00;81.70;;;18.77;44.96;97384.91;5025298;28;20465;-73
2022/11/18 10:11:51;;;;;;;3.65;2.85;;;18.00;81.80;;;18.72;44.99;97383.19;5024713;28;20655;-73
2022/11/18 10:15:18;;;;;;;4.50;3.22;;;18.00;81.50;;;18.71;44.97;97392.63;5026724;28;20314;-73
2022/11/18 10:18:36;;;;;;;3.95;2.55;;;17.90;81.30;;;18.70;44.98;97387.47;5033331;28;20064;-73
2022/11/18 10:21:54;;;;;;;5.45;3.10;;;17.90;81.40;;;18.73;45.00;97390.31;5035894;28;20436;-73
2022/11/18 10:24:25;;;;;;;4.13;2.78;;;17.90;81.50;;;18.73;44.91;97397.75;5018713;28;20125;-74
2022/11/18 10:26:59;;;;;;;4.38;3.38;;;17.90;81.70;;;18.76;45.24;97389.59;5024670;28;20045;-74
2022/11/18 10:29:25;;;;;;;4.03;2.95;;;17.90;81.80;;;18.70;45.12;97399.28;5025839;28;20065;-73
2022/11/18 10:32:07;;;;;;;4.15;2.97;;;17.90;81.60;;;18.72;44.81;97399.69;5011036;28;20099;-73
2022/11/18 10:34:34;;;;;;;3.35;2.97;;;17.90;81.50;;;18.66;45.00;97396.44;5026855;28;20045;-73
2022/11/18 10:37:20;;;;;;;4.28;2.67;;;17.80;81.40;;;18.66;45.01;97392.91;5023222;28;20064;-73
2022/11/18 10:39:57;;;;;;;2.45;2.25;;;17.90;82.00;;;18.67;45.07;97397.22;5024577;28;20052;-73
2022/11/18 10:42:28;;;;;;;5.07;2.72;;;17.80;82.20;;;18.70;45.06;97402.03;5013599;28;20046;-73
2022/11/18 10:44:55;;;;;;;3.08;2.67;;;17.90;81.60;;;18.64;45.05;97414.44;5025333;28;20539;-73
2022/11/18 10:47:29;;;;;;;4.03;3.15;;;17.90;81.30;;;18.64;44.84;97406.97;4993698;28;20041;-73
2022/11/18 10:50:00;;;;;;;5.82;3.50;;;17.80;81.20;;;18.64;44.82;97400.69;5013739;28;20486;-73
2022/11/18 10:52:27;;;;;;;4.05;3.22;;;17.80;81.10;;;18.63;44.80;97393.63;5010510;28;20044;-73
2022/11/18 10:55:13;;;;;;;4.30;2.17;;;17.90;81.20;;;18.61;44.84;97390.44;5025146;28;20126;-73